Time;durP1;ratioP1;P1;durP2;ratioP2;P2;SDS_P1;SDS_P2;PMS_P1;PMS_P2;Temp;Humidity;BMP_temperature;BMP_pressure;BME280_temperature;BME280_humidity;BME280_pressure;Samples;Min_cycle;Max_cycle;Signal;HPM_P1;HPM_P2
2022/01/08 00:00:50;;;;;;;2.95;1.60;;;6.70;98.80;;;;;;10522952;28;20108;-68
2022/01/08 00:05:52;;;;;;;3.67;1.85;;;6.70;98.80;;;;;;10513083;28;20071;-66
2022/01/08 00:10:54;;;;;;;2.67;1.73;;;6.70;98.80;;;;;;10519231;28;20086;-67
2022/01/08 00:15:54;;;;;;;2.83;1.50;;;6.70;98.80;;;;;;10528283;28;20040;-63
2022/01/08 00:20:55;;;;;;;3.97;1.92;;;7.00;98.90;;;;;;10518241;28;20405;-65
2022/01/08 00:25:58;;;;;;;9.27;2.33;;;6.90;98.80;;;;;;10528836;28;20421;-62
2022/01/08 00:30:59;;;;;;;2.80;2.00;;;6.60;98.80;;;;;;10528247;28;20030;-66
2022/01/08 00:36:00;;;;;;;4.45;2.13;;;6.80;98.80;;;;;;10526203;28;20525;-67
2022/01/08 00:41:01;;;;;;;3.28;2.13;;;6.60;98.80;;;;;;10516154;28;20024;-65
2022/01/08 00:46:02;;;;;;;5.82;2.28;;;6.60;98.80;;;;;;10527692;28;20028;-67
2022/01/08 00:51:02;;;;;;;3.38;2.20;;;6.60;98.80;;;;;;10527016;28;20417;-64
2022/01/08 00:56:04;;;;;;;4.65;2.58;;;6.60;98.80;;;;;;10526468;28;20081;-63
2022/01/08 01:01:05;;;;;;;5.22;2.80;;;6.60;98.80;;;;;;10499762;28;20048;-68
2022/01/08 01:06:06;;;;;;;5.85;2.75;;;6.60;98.80;;;;;;10511687;28;20029;-67
2022/01/08 01:11:07;;;;;;;5.40;2.60;;;6.60;98.80;;;;;;10512543;28;20089;-66
2022/01/08 01:16:08;;;;;;;4.80;3.13;;;6.60;98.80;;;;;;10519135;28;20083;-64
2022/01/08 01:21:09;;;;;;;4.60;2.50;;;6.60;98.70;;;;;;10512700;28;20090;-63
2022/01/08 01:26:15;;;;;;;5.88;2.95;;;6.60;98.70;;;;;;10528979;28;20036;-64
2022/01/08 01:47:04;;;;;;;4.68;2.92;;;6.50;98.60;;;;;;10534678;28;20111;-67
2022/01/08 01:52:07;;;;;;;4.50;3.15;;;6.50;98.70;;;;;;10534377;28;20398;-67
2022/01/08 01:57:10;;;;;;;4.93;2.95;;;6.60;98.70;;;;;;10534811;28;20058;-68
2022/01/08 02:02:11;;;;;;;5.53;3.30;;;6.50;98.70;;;;;;10520615;28;20464;-63
2022/01/08 02:07:12;;;;;;;5.07;3.22;;;6.60;98.70;;;;;;10523827;28;20051;-63
2022/01/08 02:12:17;;;;;;;5.38;2.78;;;6.50;98.90;;;;;;10525080;28;20075;-65
2022/01/08 02:17:18;;;;;;;5.40;2.70;;;6.50;98.60;;;;;;10524170;28;20101;-67
2022/01/08 02:22:20;;;;;;;3.38;2.42;;;6.50;98.60;;;;;;10523145;28;20077;-66
2022/01/08 02:27:21;;;;;;;5.78;2.67;;;6.50;98.70;;;;;;10534299;28;20078;-67
2022/01/08 02:32:27;;;;;;;3.78;2.15;;;6.40;98.60;;;;;;10533337;28;20753;-67
2022/01/08 02:37:30;;;;;;;4.00;2.33;;;6.40;98.60;;;;;;10519555;28;20119;-65
2022/01/08 02:42:38;;;;;;;5.53;2.55;;;6.40;98.60;;;;;;10532569;28;20046;-67
2022/01/08 02:47:39;;;;;;;5.30;2.67;;;6.50;98.60;;;;;;10532386;28;20036;-60
2022/01/08 02:52:44;;;;;;;6.07;2.35;;;6.50;98.60;;;;;;10531890;28;20028;-65
2022/01/08 02:57:46;;;;;;;3.97;2.08;;;6.40;98.60;;;;;;10532176;28;20043;-66
2022/01/08 03:02:49;;;;;;;4.22;2.40;;;6.40;98.60;;;;;;10513183;28;20064;-65
2022/01/08 03:07:50;;;;;;;8.10;2.97;;;6.10;98.50;;;;;;10508447;28;20078;-68
2022/01/08 03:12:51;;;;;;;3.90;2.45;;;6.40;98.60;;;;;;10528089;28;20390;-67
2022/01/08 03:17:52;;;;;;;4.68;2.20;;;6.40;98.60;;;;;;10531846;28;20036;-64
2022/01/08 03:23:00;;;;;;;4.82;2.47;;;6.40;98.60;;;;;;10520606;28;20197;-65
2022/01/08 03:28:01;;;;;;;5.80;2.83;;;6.40;98.60;;;;;;10531403;28;20716;-67
2022/01/08 03:33:01;;;;;;;5.65;2.58;;;6.40;98.60;;;;;;10531055;28;20032;-65
2022/01/08 03:38:02;;;;;;;4.80;3.08;;;6.40;98.60;;;;;;10516956;28;20429;-67
2022/01/08 03:43:03;;;;;;;6.20;2.58;;;6.40;98.60;;;;;;10530547;28;20035;-65
2022/01/08 03:53:07;;;;;;;5.35;2.90;;;6.40;98.60;;;;;;10530358;28;20135;-62
2022/01/08 03:58:08;;;;;;;4.93;2.33;;;6.50;98.60;;;;;;10529754;28;20036;-66
2022/01/08 04:03:09;;;;;;;6.40;2.95;;;6.30;98.50;;;;;;10516284;28;20023;-65
2022/01/08 04:08:10;;;;;;;5.57;3.00;;;6.30;98.80;;;;;;10510607;28;20131;-67
2022/01/08 04:13:15;;;;;;;6.85;2.78;;;6.30;98.50;;;;;;10528750;28;20048;-63
2022/01/08 04:18:16;;;;;;;5.95;2.83;;;6.30;98.50;;;;;;10529001;28;20024;-65
2022/01/08 04:23:21;;;;;;;5.57;3.15;;;6.30;98.50;;;;;;10519186;28;20021;-64
2022/01/08 04:28:22;;;;;;;5.38;2.40;;;6.30;98.50;;;;;;10528474;28;20169;-66
2022/01/08 04:33:22;;;;;;;4.90;2.33;;;6.30;98.50;;;;;;10511115;28;20603;-66
2022/01/08 04:38:23;;;;;;;4.28;2.30;;;6.30;98.50;;;;;;10514465;28;20123;-65
2022/01/08 04:43:24;;;;;;;4.88;2.28;;;6.30;98.80;;;;;;10528406;28;20039;-65
2022/01/08 04:48:25;;;;;;;6.32;2.22;;;6.30;98.50;;;;;;10528390;28;20036;-64
2022/01/08 04:53:26;;;;;;;3.58;2.10;;;6.30;98.60;;;;;;10528336;28;20055;-67
2022/01/08 04:58:28;;;;;;;6.63;2.38;;;6.30;98.50;;;;;;10527949;28;20038;-65
2022/01/08 05:03:28;;;;;;;4.72;1.80;;;6.30;98.50;;;;;;10513832;28;20481;-66
2022/01/08 05:08:30;;;;;;;5.03;2.15;;;6.20;98.50;;;;;;10516806;28;20054;-67
2022/01/08 05:13:30;;;;;;;3.08;1.77;;;6.20;98.50;;;;;;10527811;28;20075;-66
2022/01/08 05:18:32;;;;;;;3.78;2.13;;;6.30;98.50;;;;;;10536139;28;20490;-62
2022/01/08 05:23:33;;;;;;;3.85;2.03;;;6.20;98.50;;;;;;10524946;28;20043;-64
2022/01/08 05:28:34;;;;;;;2.47;1.80;;;6.20;98.50;;;;;;10535005;28;20130;-66
2022/01/08 05:33:35;;;;;;;2.55;1.90;;;6.20;98.50;;;;;;10534601;28;20111;-68
2022/01/08 05:38:35;;;;;;;5.43;1.98;;;6.20;98.50;;;;;;10520919;28;20032;-61
2022/01/08 05:43:36;;;;;;;7.30;2.05;;;6.20;98.50;;;;;;10533893;28;20044;-62
2022/01/08 05:48:39;;;;;;;5.85;2.00;;;6.20;98.50;;;;;;10533989;28;20048;-63
2022/01/08 05:53:40;;;;;;;3.97;1.73;;;6.20;98.50;;;;;;10534236;28;20028;-62
2022/01/08 05:58:41;;;;;;;6.38;2.35;;;6.20;98.50;;;;;;10534957;28;20035;-62
2022/01/08 06:03:41;;;;;;;3.28;2.00;;;6.10;98.50;;;;;;10520764;28;20391;-65
2022/01/08 06:08:42;;;;;;;4.88;1.95;;;6.20;98.50;;;;;;10513152;28;20040;-68
2022/01/08 06:13:43;;;;;;;5.65;2.20;;;6.10;98.50;;;;;;10534556;28;20047;-65
2022/01/08 06:18:45;;;;;;;4.15;2.03;;;6.10;98.50;;;;;;10535902;28;20105;-67
2022/01/08 06:23:46;;;;;;;4.30;1.80;;;6.10;98.50;;;;;;10523549;28;20062;-66
2022/01/08 06:28:49;;;;;;;4.70;2.55;;;6.10;98.50;;;;;;10528742;28;20478;-65
2022/01/08 06:33:50;;;;;;;4.78;2.05;;;6.10;98.50;;;;;;10512795;28;20028;-65
2022/01/08 06:38:52;;;;;;;3.75;1.67;;;6.10;98.50;;;;;;10519575;28;20024;-67
2022/01/08 06:43:52;;;;;;;5.25;1.95;;;6.10;98.50;;;;;;10533245;28;20478;-63
2022/01/08 06:48:53;;;;;;;3.55;1.77;;;6.10;98.50;;;;;;10526604;28;20032;-66
2022/01/08 06:53:54;;;;;;;6.45;1.92;;;6.10;98.40;;;;;;10532433;28;20028;-65
2022/01/08 06:58:55;;;;;;;5.00;1.73;;;6.10;98.40;;;;;;10533563;28;20485;-67
2022/01/08 07:03:56;;;;;;;5.43;1.52;;;6.00;98.40;;;;;;10505775;28;20082;-67
2022/01/08 07:08:57;;;;;;;3.50;1.60;;;6.00;98.40;;;;;;10518402;28;20044;-68
2022/01/08 07:13:57;;;;;;;5.70;1.55;;;6.00;98.40;;;;;;10531403;28;20040;-64
2022/01/08 07:18:58;;;;;;;2.28;1.33;;;6.00;98.40;;;;;;10532494;28;20019;-64
2022/01/08 07:23:59;;;;;;;3.33;1.60;;;6.00;98.40;;;;;;10520734;28;20474;-58
2022/01/08 07:28:59;;;;;;;1.63;1.25;;;6.00;98.40;;;;;;10530621;28;20036;-61
2022/01/08 07:34:00;;;;;;;4.65;1.73;;;6.00;98.40;;;;;;10530156;28;20066;-65
2022/01/08 07:39:01;;;;;;;4.22;1.70;;;5.90;98.10;;;;;;10514433;28;20036;-64
2022/01/08 07:44:02;;;;;;;2.10;1.33;;;5.90;98.30;;;;;;10530344;28;20462;-63
2022/01/08 07:49:03;;;;;;;4.55;1.63;;;5.90;98.30;;;;;;10530328;28;20063;-68
2022/01/08 07:54:04;;;;;;;4.43;1.70;;;5.90;98.30;;;;;;10530063;28;20553;-60
2022/01/08 07:59:05;;;;;;;4.40;1.60;;;6.00;98.30;;;;;;10529737;28;20039;-68
2022/01/08 08:04:05;;;;;;;4.38;1.38;;;5.90;98.30;;;;;;10526497;28;20483;-66
2022/01/08 08:09:06;;;;;;;2.60;1.42;;;5.90;98.30;;;;;;10512441;28;20055;-68
2022/01/08 08:14:07;;;;;;;4.70;1.77;;;5.90;98.30;;;;;;10532084;28;20044;-68
2022/01/08 08:19:08;;;;;;;4.43;1.50;;;5.90;98.20;;;;;;10529355;28;20490;-67
2022/01/08 08:24:09;;;;;;;4.13;1.98;;;6.00;98.20;;;;;;10518821;28;20024;-66
2022/01/08 08:29:10;;;;;;;5.63;2.05;;;5.90;98.20;;;;;;10528600;28;20545;-66
2022/01/08 08:34:11;;;;;;;3.58;1.80;;;6.00;98.20;;;;;;10510139;28;20023;-66
2022/01/08 08:39:12;;;;;;;5.85;1.77;;;6.00;98.20;;;;;;10492598;28;20032;-67
2022/01/08 08:44:12;;;;;;;4.50;1.73;;;6.00;98.20;;;;;;10505128;28;20051;-71
2022/01/08 08:49:13;;;;;;;3.47;2.13;;;6.10;98.20;;;;;;10507282;28;20039;-64
2022/01/08 08:54:14;;;;;;;6.38;2.22;;;6.00;98.10;;;;;;10525416;28;20395;-64
2022/01/08 08:59:14;;;;;;;4.75;1.90;;;6.30;98.20;;;;;;10518490;28;20439;-65
2022/01/08 09:04:15;;;;;;;5.18;1.95;;;6.10;98.10;;;;;;10500646;28;20490;-64
2022/01/08 09:09:16;;;;;;;5.65;2.20;;;6.00;98.30;;;;;;10504270;28;20033;-66
2022/01/08 09:14:17;;;;;;;3.97;1.90;;;6.00;98.10;;;;;;10490362;28;20049;-66
2022/01/08 09:19:19;;;;;;;5.40;2.22;;;6.00;98.00;;;;;;10497254;28;20363;-61
2022/01/08 09:24:21;;;;;;;3.08;1.95;;;6.10;98.00;;;;;;10494894;28;20107;-65
2022/01/08 09:29:21;;;;;;;4.57;2.58;;;6.10;98.00;;;;;;10492448;28;20044;-64
2022/01/08 09:34:22;;;;;;;4.43;2.10;;;6.40;98.10;;;;;;10492309;28;20020;-66
2022/01/08 09:39:23;;;;;;;4.80;2.40;;;6.10;98.20;;;;;;10492902;28;20657;-65
2022/01/08 09:44:24;;;;;;;6.28;2.40;;;6.80;98.10;;;;;;10499713;28;20177;-64
2022/01/08 09:49:25;;;;;;;4.13;2.13;;;6.10;97.90;;;;;;10515831;28;20051;-60
2022/01/08 09:54:27;;;;;;;7.88;2.55;;;6.10;97.90;;;;;;10515893;28;20036;-64
2022/01/08 09:59:28;;;;;;;4.65;2.40;;;6.20;98.20;;;;;;10519122;28;20028;-67
2022/01/08 10:04:33;;;;;;;5.07;2.33;;;6.20;97.90;;;;;;10508665;28;20037;-63
2022/01/08 10:09:34;;;;;;;3.83;2.38;;;6.00;97.80;;;;;;10505936;28;20037;-65
2022/01/08 10:17:13;;;;;;;8.48;3.10;;;6.30;98.20;;;;;;10527749;28;20048;-63
2022/01/08 10:19:55;;;;;;;4.20;2.58;;;6.40;97.90;;;;;;10528606;28;20252;-62
2022/01/08 10:25:16;;;;;;;6.55;3.15;;;6.40;97.90;;;;;;10510183;28;20040;-65
2022/01/08 10:30:27;;;;;;;8.18;3.28;;;6.40;97.90;;;;;;10530453;28;20088;-65
2022/01/08 10:35:51;;;;;;;8.57;3.33;;;6.40;97.90;;;;;;10518240;28;20028;-61
2022/01/08 10:40:52;;;;;;;4.97;2.80;;;6.40;97.80;;;;;;10526308;28;20016;-63
2022/01/08 10:45:55;;;;;;;9.35;3.05;;;6.40;97.80;;;;;;10502076;28;20024;-68
2022/01/08 10:51:09;;;;;;;9.20;3.35;;;6.40;97.90;;;;;;10529621;28;20505;-64
2022/01/08 10:56:39;;;;;;;4.75;3.08;;;6.50;97.90;;;;;;10524950;28;20012;-66
2022/01/08 11:01:46;;;;;;;10.25;3.30;;;6.50;97.90;;;;;;10531869;28;20024;-67
2022/01/08 11:06:52;;;;;;;10.77;3.47;;;6.70;98.00;;;;;;10531779;28;20062;-65
2022/01/08 11:11:55;;;;;;;6.90;3.58;;;6.60;97.90;;;;;;10527876;28;20543;-68
2022/01/08 11:16:57;;;;;;;8.02;4.10;;;6.60;97.90;;;;;;10498596;28;20124;-66
2022/01/08 11:21:58;;;;;;;6.57;4.18;;;6.50;98.00;;;;;;10512997;28;20561;-70
2022/01/08 11:26:59;;;;;;;11.77;5.15;;;6.50;98.00;;;;;;10531668;28;20058;-63
2022/01/08 11:32:02;;;;;;;10.32;4.88;;;6.60;98.20;;;;;;10527962;28;20031;-64
2022/01/08 11:37:03;;;;;;;8.98;5.10;;;6.50;98.10;;;;;;10530755;28;20526;-64
2022/01/08 11:42:05;;;;;;;12.75;5.95;;;6.50;98.20;;;;;;10530428;28;20066;-67
2022/01/08 11:47:07;;;;;;;8.13;5.80;;;6.50;98.20;;;;;;10513305;28;20040;-66
2022/01/08 11:52:23;;;;;;;10.85;6.30;;;6.40;98.20;;;;;;10514508;28;20115;-67
2022/01/08 11:57:27;;;;;;;14.00;6.65;;;6.40;98.20;;;;;;10524886;28;20020;-67
2022/01/08 12:02:41;;;;;;;11.70;6.57;;;6.40;98.30;;;;;;10509779;28;20109;-64
2022/01/08 12:07:46;;;;;;;11.10;6.60;;;6.40;98.30;;;;;;10523464;28;20032;-69
2022/01/08 12:12:52;;;;;;;12.25;6.97;;;6.30;98.40;;;;;;10520030;28;20406;-66
2022/01/08 12:17:57;;;;;;;16.58;7.55;;;6.30;98.40;;;;;;10524588;28;20229;-67
2022/01/08 12:23:36;;;;;;;13.90;6.93;;;6.40;98.40;;;;;;10516423;28;20508;-67
2022/01/08 12:28:40;;;;;;;13.80;7.00;;;6.30;98.30;;;;;;10527125;28;20131;-67
2022/01/08 12:33:41;;;;;;;11.35;6.93;;;6.40;98.40;;;;;;10527522;28;20028;-64
2022/01/08 12:38:42;;;;;;;11.43;7.35;;;6.40;98.30;;;;;;10527149;28;20421;-66
2022/01/08 12:43:43;;;;;;;10.50;6.22;;;6.40;98.30;;;;;;10519046;28;20028;-71
2022/01/08 12:49:06;;;;;;;10.32;6.47;;;6.40;98.30;;;;;;10528799;28;20502;-69
2022/01/08 12:54:07;;;;;;;13.13;6.68;;;6.40;98.60;;;;;;10515133;28;20053;-71
2022/01/08 12:59:08;;;;;;;13.18;5.97;;;6.50;98.40;;;;;;10531253;28;20811;-66
2022/01/08 13:04:16;;;;;;;10.68;5.88;;;6.50;98.40;;;;;;10512523;28;20024;-66
2022/01/08 13:09:17;;;;;;;11.13;5.72;;;6.70;98.40;;;;;;10512612;28;20486;-68
2022/01/08 13:14:21;;;;;;;10.95;5.82;;;6.50;98.40;;;;;;10527910;28;20134;-68
2022/01/08 13:19:28;;;;;;;10.13;5.68;;;6.50;98.40;;;;;;10518725;28;20064;-68
2022/01/08 13:24:40;;;;;;;12.48;5.28;;;6.60;98.40;;;;;;10530129;28;20028;-69
2022/01/08 13:29:43;;;;;;;13.82;5.72;;;6.50;98.40;;;;;;10527593;28;20564;-68
2022/01/08 13:34:49;;;;;;;10.75;5.60;;;6.50;98.40;;;;;;10529386;28;20055;-66
2022/01/08 13:39:54;;;;;;;14.02;5.65;;;6.40;98.40;;;;;;10534632;28;20395;-68
2022/01/08 13:45:17;;;;;;;12.75;6.13;;;6.50;98.40;;;;;;10532462;28;20073;-67
2022/01/08 13:50:33;;;;;;;10.88;5.68;;;6.40;98.40;;;;;;10531523;28;20115;-68
2022/01/08 13:55:48;;;;;;;12.57;6.40;;;6.40;98.40;;;;;;10531138;28;20019;-64
2022/01/08 14:01:10;;;;;;;14.27;5.97;;;6.50;98.40;;;;;;10528670;28;20017;-68
2022/01/08 14:06:25;;;;;;;11.48;5.57;;;6.60;98.40;;;;;;10520032;28;20102;-67
2022/01/08 14:11:27;;;;;;;8.45;4.82;;;6.40;98.40;;;;;;10515799;28;20032;-68
2022/01/08 14:16:32;;;;;;;13.18;6.05;;;6.40;98.50;;;;;;10515735;28;20040;-67
2022/01/08 14:21:33;;;;;;;12.98;5.82;;;6.40;98.40;;;;;;10521203;28;20420;-67
2022/01/08 14:26:34;;;;;;;11.10;5.38;;;6.40;98.50;;;;;;10519124;28;20615;-63
2022/01/08 14:31:35;;;;;;;10.45;5.25;;;6.30;98.50;;;;;;10533790;28;20146;-72
2022/01/08 14:36:48;;;;;;;9.73;4.47;;;6.40;98.50;;;;;;10534169;28;20024;-63
2022/01/08 14:41:55;;;;;;;9.85;4.60;;;6.40;98.60;;;;;;10512474;28;20020;-65
2022/01/08 14:46:56;;;;;;;10.15;4.90;;;6.40;98.50;;;;;;10498463;28;20127;-64
2022/01/08 14:51:57;;;;;;;9.88;4.25;;;6.40;98.50;;;;;;10512260;28;20016;-63
2022/01/08 14:56:58;;;;;;;6.75;3.45;;;6.40;98.50;;;;;;10498880;28;20475;-64
2022/01/08 15:02:00;;;;;;;8.73;3.80;;;6.30;98.50;;;;;;10498644;28;20017;-64
2022/01/08 15:07:00;;;;;;;7.65;3.03;;;6.30;98.50;;;;;;10499616;28;20047;-65
2022/01/08 15:12:01;;;;;;;9.50;3.17;;;6.30;98.50;;;;;;10525853;28;20024;-64
2022/01/08 15:17:03;;;;;;;4.55;2.58;;;6.20;98.80;;;;;;10531908;28;20056;-64
2022/01/08 15:22:04;;;;;;;6.85;3.00;;;6.20;98.50;;;;;;10517793;28;20051;-66
2022/01/08 15:27:05;;;;;;;5.03;2.65;;;6.10;98.50;;;;;;10534516;28;20643;-64
2022/01/08 15:32:06;;;;;;;6.20;2.05;;;6.30;98.60;;;;;;10530525;28;20335;-61
2022/01/08 15:37:07;;;;;;;8.45;2.65;;;6.10;98.60;;;;;;10513154;28;20030;-64
2022/01/08 15:42:08;;;;;;;6.82;2.25;;;6.00;98.60;;;;;;10530547;28;20028;-60
2022/01/08 15:47:10;;;;;;;3.72;2.15;;;6.00;98.60;;;;;;10530094;28;20130;-64
2022/01/08 15:52:11;;;;;;;4.30;2.13;;;6.00;98.70;;;;;;10518657;28;20051;-65
2022/01/08 15:57:11;;;;;;;4.28;2.13;;;6.00;98.70;;;;;;10527587;28;20040;-62
2022/01/08 16:02:12;;;;;;;3.33;2.13;;;6.10;98.80;;;;;;10514753;28;20032;-63
2022/01/08 16:07:13;;;;;;;5.30;1.88;;;6.00;98.80;;;;;;10519552;28;20051;-67
2022/01/08 16:12:13;;;;;;;4.85;2.22;;;6.00;98.80;;;;;;10522385;28;20028;-62
2022/01/08 16:17:14;;;;;;;3.53;1.95;;;6.00;98.80;;;;;;10487203;28;20098;-63
2022/01/08 16:22:15;;;;;;;3.70;1.80;;;6.00;98.80;;;;;;10474478;28;20024;-61
2022/01/08 16:27:16;;;;;;;5.15;2.10;;;6.00;98.80;;;;;;10489950;28;20028;-62
2022/01/08 16:32:17;;;;;;;5.05;1.88;;;6.00;98.80;;;;;;10468619;28;20039;-63
2022/01/08 16:37:17;;;;;;;3.92;2.13;;;6.00;98.90;;;;;;10486860;28;20119;-64
2022/01/08 16:42:18;;;;;;;4.25;1.73;;;6.00;98.90;;;;;;10468674;28;20031;-59
2022/01/08 16:47:19;;;;;;;2.22;1.45;;;6.10;99.00;;;;;;10486728;28;20469;-66
2022/01/08 16:52:20;;;;;;;1.95;1.33;;;6.10;99.00;;;;;;10473159;28;20023;-63
2022/01/08 16:57:21;;;;;;;6.75;1.77;;;6.10;99.00;;;;;;10486427;28;20024;-60
2022/01/08 17:02:23;;;;;;;3.55;1.90;;;6.00;99.00;;;;;;10473343;28;20024;-60
2022/01/08 17:07:24;;;;;;;1.90;1.38;;;6.00;99.00;;;;;;10467800;28;20498;-62
2022/01/08 17:12:24;;;;;;;2.50;1.73;;;6.00;99.10;;;;;;10492929;28;20077;-65
2022/01/08 17:17:26;;;;;;;1.45;1.30;;;6.00;99.10;;;;;;10536941;28;20024;-60
2022/01/08 17:22:27;;;;;;;2.13;1.75;;;6.00;99.10;;;;;;10537460;28;20032;-59
2022/01/08 17:27:28;;;;;;;2.72;1.52;;;6.00;99.20;;;;;;10529915;28;20028;-66
2022/01/08 17:32:28;;;;;;;2.10;1.23;;;6.00;99.20;;;;;;10534840;28;20030;-66
2022/01/08 17:37:29;;;;;;;3.33;1.70;;;6.00;99.20;;;;;;10528713;28;20093;-63
2022/01/08 17:42:30;;;;;;;3.10;1.60;;;6.00;99.30;;;;;;10523342;28;20028;-64
2022/01/08 17:47:31;;;;;;;2.33;1.70;;;6.00;99.30;;;;;;10516391;28;20497;-59
2022/01/08 17:52:32;;;;;;;1.75;1.50;;;6.00;99.30;;;;;;10518486;28;20024;-65
2022/01/08 17:57:33;;;;;;;2.17;1.65;;;6.00;99.30;;;;;;10517221;28;20111;-64
2022/01/08 18:02:34;;;;;;;2.72;1.70;;;6.00;99.40;;;;;;10521861;28;20027;-65
2022/01/08 18:07:37;;;;;;;3.97;1.90;;;6.00;99.40;;;;;;10525196;28;20039;-68
2022/01/08 18:12:40;;;;;;;10.93;7.55;;;6.00;99.40;;;;;;10517636;28;20048;-66
2022/01/08 18:17:42;;;;;;;9.68;7.38;;;6.00;99.60;;;;;;10521499;28;20052;-67
2022/01/08 18:22:43;;;;;;;8.75;5.57;;;6.20;99.40;;;;;;10512601;28;20027;-66
2022/01/08 18:27:45;;;;;;;6.05;4.80;;;6.30;99.30;;;;;;10514742;28;20481;-66
2022/01/08 18:32:47;;;;;;;6.43;4.07;;;6.40;99.20;;;;;;10507289;28;20091;-65
2022/01/08 18:37:48;;;;;;;6.72;4.05;;;6.40;99.20;;;;;;10529117;28;20028;-65
2022/01/08 18:42:51;;;;;;;4.72;3.33;;;6.40;99.20;;;;;;10517742;28;20386;-65
2022/01/08 18:47:52;;;;;;;4.13;3.03;;;6.40;99.30;;;;;;10516341;28;20051;-66
2022/01/08 18:52:53;;;;;;;4.03;3.10;;;6.40;99.30;;;;;;10524498;28;20398;-66
2022/01/08 18:57:53;;;;;;;3.50;2.70;;;6.40;99.40;;;;;;10519323;28;20039;-64
2022/01/08 19:02:54;;;;;;;4.32;3.10;;;6.40;99.40;;;;;;10494594;28;20471;-64
2022/01/08 19:07:55;;;;;;;6.15;3.05;;;6.40;99.40;;;;;;10513871;28;20036;-65
2022/01/08 19:12:56;;;;;;;3.65;2.20;;;6.40;99.50;;;;;;10521965;28;20066;-63
2022/01/08 19:17:57;;;;;;;3.53;2.70;;;6.40;99.50;;;;;;10506204;28;20035;-64
2022/01/08 19:22:58;;;;;;;3.03;2.30;;;6.40;99.50;;;;;;10517439;28;20035;-63
2022/01/08 19:27:58;;;;;;;3.47;2.55;;;6.40;99.50;;;;;;10504426;28;20089;-68
2022/01/08 19:33:00;;;;;;;3.10;2.40;;;6.40;99.60;;;;;;10520235;28;20032;-69
2022/01/08 19:38:00;;;;;;;2.80;2.50;;;6.40;99.60;;;;;;10517883;28;20139;-64
2022/01/08 19:43:02;;;;;;;3.05;2.22;;;6.30;99.70;;;;;;10501184;28;20071;-65
2022/01/08 19:48:03;;;;;;;4.55;3.55;;;6.40;99.70;;;;;;10520752;28;20481;-62
2022/01/08 19:53:04;;;;;;;4.68;3.58;;;6.30;99.80;;;;;;10526718;28;20028;-72
2022/01/08 19:58:04;;;;;;;5.32;3.65;;;6.40;99.90;;;;;;10519278;28;20036;-69
2022/01/08 20:03:05;;;;;;;4.13;3.17;;;6.50;99.90;;;;;;10516040;28;20036;-67
2022/01/08 20:08:06;;;;;;;4.32;3.20;;;6.50;99.90;;;;;;10518810;28;20089;-68
2022/01/08 20:13:07;;;;;;;4.88;2.65;;;6.60;99.90;;;;;;10501528;28;20036;-62
2022/01/08 20:18:08;;;;;;;4.35;3.13;;;6.60;99.90;;;;;;10509579;28;20071;-63
2022/01/08 20:23:09;;;;;;;4.68;2.45;;;6.60;99.90;;;;;;10516753;28;20021;-67
2022/01/08 20:28:10;;;;;;;2.63;2.10;;;6.60;99.90;;;;;;10507696;28;20044;-59
2022/01/08 20:33:10;;;;;;;3.80;2.40;;;6.60;99.90;;;;;;10508938;28;20371;-68
2022/01/08 20:38:11;;;;;;;2.60;2.08;;;6.50;99.90;;;;;;10495426;28;20024;-65
2022/01/08 20:43:12;;;;;;;2.17;1.98;;;6.50;99.90;;;;;;10508152;28;20410;-60
2022/01/08 20:48:13;;;;;;;3.38;2.25;;;6.60;99.90;;;;;;10515942;28;20036;-65
2022/01/08 20:53:14;;;;;;;2.67;1.80;;;6.60;99.90;;;;;;10513203;28;20062;-64
2022/01/08 20:58:14;;;;;;;3.45;2.10;;;6.60;99.90;;;;;;10517136;28;20500;-65
2022/01/08 21:03:18;;;;;;;4.40;2.10;;;6.60;99.90;;;;;;10520555;28;20016;-62
2022/01/08 21:08:18;;;;;;;2.55;1.92;;;6.60;99.90;;;;;;10514058;28;20044;-65
2022/01/08 21:13:20;;;;;;;3.47;2.10;;;6.60;99.90;;;;;;10511270;28;20434;-67
2022/01/08 21:18:21;;;;;;;2.35;1.70;;;6.50;99.90;;;;;;10493315;28;20530;-61
2022/01/08 21:23:22;;;;;;;2.38;1.63;;;6.30;99.90;;;;;;10469659;28;20030;-66
2022/01/08 21:28:24;;;;;;;2.22;1.90;;;6.60;99.90;;;;;;10462456;28;20375;-64
2022/01/08 21:33:25;;;;;;;2.97;1.90;;;6.60;99.90;;;;;;10484198;28;20053;-67
2022/01/08 21:38:34;;;;;;;2.50;2.08;;;6.60;99.90;;;;;;10484766;28;20427;-69
2022/01/08 21:43:35;;;;;;;2.40;2.08;;;6.60;99.90;;;;;;10463203;28;20013;-60
2022/01/08 21:48:36;;;;;;;3.10;2.05;;;6.60;99.90;;;;;;10473428;28;20044;-65
2022/01/08 21:53:36;;;;;;;2.30;1.85;;;6.60;99.90;;;;;;10489985;28;20535;-68
2022/01/08 21:58:37;;;;;;;2.60;1.95;;;6.60;99.90;;;;;;10503682;28;20040;-69
2022/01/08 22:03:38;;;;;;;2.63;2.10;;;6.60;99.90;;;;;;10500985;28;20025;-69
2022/01/08 22:08:39;;;;;;;2.85;2.05;;;6.60;99.90;;;;;;10462374;28;20402;-71
2022/01/08 22:13:40;;;;;;;2.50;2.00;;;6.60;99.90;;;;;;10473708;28;20076;-70
2022/01/08 22:18:41;;;;;;;3.83;2.10;;;6.60;99.90;;;;;;10527978;28;20028;-67
2022/01/08 22:23:41;;;;;;;2.20;2.00;;;6.60;99.90;;;;;;10511702;28;20024;-60
2022/01/08 22:28:42;;;;;;;3.22;2.13;;;6.60;99.90;;;;;;10512813;28;21592;-64
2022/01/08 22:33:43;;;;;;;3.38;2.00;;;6.60;99.90;;;;;;10509685;28;20356;-64
2022/01/08 22:38:44;;;;;;;3.20;2.10;;;6.60;99.90;;;;;;10509962;28;20032;-67
2022/01/08 22:43:47;;;;;;;3.72;2.53;;;6.60;99.90;;;;;;10515186;28;20073;-66
2022/01/08 22:48:51;;;;;;;3.25;2.65;;;6.60;99.90;;;;;;10511653;28;20414;-66
2022/01/08 22:53:52;;;;;;;3.00;2.30;;;6.60;99.90;;;;;;10513747;28;20779;-63
2022/01/08 22:58:52;;;;;;;3.72;2.90;;;6.60;99.90;;;;;;10526368;28;20585;-65
2022/01/08 23:03:53;;;;;;;3.80;2.95;;;6.60;99.90;;;;;;10524949;28;20020;-60
2022/01/08 23:08:55;;;;;;;4.65;2.90;;;6.60;99.90;;;;;;10513558;28;20168;-60
2022/01/08 23:13:56;;;;;;;4.40;2.85;;;6.60;99.90;;;;;;10516156;28;20664;-59
2022/01/08 23:18:58;;;;;;;3.95;2.88;;;6.60;99.90;;;;;;10519566;28;20032;-62
2022/01/08 23:23:59;;;;;;;3.92;2.88;;;6.60;99.90;;;;;;10507125;28;20036;-63
2022/01/08 23:29:00;;;;;;;5.97;3.15;;;6.60;99.90;;;;;;10508070;28;20050;-63
2022/01/08 23:34:01;;;;;;;4.65;3.30;;;6.60;99.90;;;;;;10518270;28;20012;-63
2022/01/08 23:39:03;;;;;;;6.38;3.25;;;6.60;99.90;;;;;;10514520;28;20497;-59
2022/01/08 23:44:04;;;;;;;4.28;3.10;;;6.60;99.90;;;;;;10524351;28;20540;-59
2022/01/08 23:49:12;;;;;;;5.25;3.30;;;6.60;99.90;;;;;;10528957;28;20040;-63
2022/01/08 23:54:12;;;;;;;5.03;3.45;;;6.60;99.90;;;;;;10528704;28;20024;-60
2022/01/08 23:59:13;;;;;;;4.32;3.03;;;6.60;99.90;;;;;;10525273;28;20047;-63
